sensor_id;sensor_type;location;lat;lon;timestamp;pressure;altitude;pressure_sealevel;temperature;humidity
62544;BME280;48597;49.030;1.822;2024-01-11T00:01:15;101890.34;;;19.57;34.11
62544;BME280;48597;49.030;1.822;2024-01-11T00:03:40;101885.88;;;19.56;33.89
62544;BME280;48597;49.030;1.822;2024-01-11T00:06:06;101893.63;;;19.55;33.81
62544;BME280;48597;49.030;1.822;2024-01-11T00:08:31;101893.22;;;19.57;33.78
62544;BME280;48597;49.030;1.822;2024-01-11T00:10:57;101889.97;;;19.55;33.72
62544;BME280;48597;49.030;1.822;2024-01-11T00:13:22;101900.97;;;19.56;33.82
62544;BME280;48597;49.030;1.822;2024-01-11T00:15:47;101896.50;;;19.55;33.82
62544;BME280;48597;49.030;1.822;2024-01-11T00:18:13;101890.78;;;19.55;34.15
62544;BME280;48597;49.030;1.822;2024-01-11T00:20:38;101893.63;;;19.55;33.87
62544;BME280;48597;49.030;1.822;2024-01-11T00:23:03;101885.06;;;19.55;33.83
62544;BME280;48597;49.030;1.822;2024-01-11T00:25:29;101891.59;;;19.56;33.69
62544;BME280;48597;49.030;1.822;2024-01-11T00:27:54;101896.50;;;19.55;33.78
62544;BME280;48597;49.030;1.822;2024-01-11T00:30:19;101894.44;;;19.56;33.72
62544;BME280;48597;49.030;1.822;2024-01-11T00:32:45;101897.31;;;19.56;33.80
62544;BME280;48597;49.030;1.822;2024-01-11T00:35:10;101900.97;;;19.56;33.70
62544;BME280;48597;49.030;1.822;2024-01-11T00:37:35;101910.78;;;19.55;33.77
62544;BME280;48597;49.030;1.822;2024-01-11T00:40:01;101912.41;;;19.56;33.72
62544;BME280;48597;49.030;1.822;2024-01-11T00:42:26;101923.03;;;19.56;33.70
62544;BME280;48597;49.030;1.822;2024-01-11T00:44:52;101930.41;;;19.57;33.73
62544;BME280;48597;49.030;1.822;2024-01-11T00:47:17;101929.56;;;19.56;33.71
62544;BME280;48597;49.030;1.822;2024-01-11T00:49:43;101922.22;;;19.55;33.77
62544;BME280;48597;49.030;1.822;2024-01-11T00:52:08;101932.44;;;19.56;33.67
62544;BME280;48597;49.030;1.822;2024-01-11T00:54:35;101930.00;;;19.55;33.86
62544;BME280;48597;49.030;1.822;2024-01-11T00:57:00;101936.53;;;19.55;33.65
62544;BME280;48597;49.030;1.822;2024-01-11T00:59:26;101927.13;;;19.55;33.66
62544;BME280;48597;49.030;1.822;2024-01-11T01:01:51;101932.03;;;19.54;33.76
62544;BME280;48597;49.030;1.822;2024-01-11T01:04:17;101926.31;;;19.54;33.73
62544;BME280;48597;49.030;1.822;2024-01-11T01:06:42;101920.59;;;19.54;33.71
62544;BME280;48597;49.030;1.822;2024-01-11T01:09:08;101920.59;;;19.54;33.70
62544;BME280;48597;49.030;1.822;2024-01-11T01:11:34;101926.31;;;19.54;33.66
62544;BME280;48597;49.030;1.822;2024-01-11T01:13:59;101927.56;;;19.53;33.75
62544;BME280;48597;49.030;1.822;2024-01-11T01:16:25;101928.38;;;19.54;33.72
62544;BME280;48597;49.030;1.822;2024-01-11T01:18:50;101930.41;;;19.53;33.88
62544;BME280;48597;49.030;1.822;2024-01-11T01:21:16;101923.06;;;19.52;33.67
62544;BME280;48597;49.030;1.822;2024-01-11T01:23:41;101932.88;;;19.51;33.59
62544;BME280;48597;49.030;1.822;2024-01-11T01:26:06;101936.56;;;19.52;33.73
62544;BME280;48597;49.030;1.822;2024-01-11T01:28:32;101937.38;;;19.52;33.76
62544;BME280;48597;49.030;1.822;2024-01-11T01:30:57;101938.59;;;19.51;33.56
62544;BME280;48597;49.030;1.822;2024-01-11T01:33:23;101937.38;;;19.52;33.75
62544;BME280;48597;49.030;1.822;2024-01-11T01:35:48;101951.66;;;19.52;33.76
62544;BME280;48597;49.030;1.822;2024-01-11T01:38:14;101951.66;;;19.52;33.70
62544;BME280;48597;49.030;1.822;2024-01-11T01:40:39;101945.94;;;19.52;33.77
62544;BME280;48597;49.030;1.822;2024-01-11T01:43:07;101943.09;;;19.52;33.77
62544;BME280;48597;49.030;1.822;2024-01-11T01:45:35;101942.28;;;19.48;33.78
62544;BME280;48597;49.030;1.822;2024-01-11T01:48:02;101954.94;;;19.51;33.80
62544;BME280;48597;49.030;1.822;2024-01-11T01:50:27;101966.38;;;19.51;33.74
62544;BME280;48597;49.030;1.822;2024-01-11T01:52:54;101961.47;;;19.51;33.59
62544;BME280;48597;49.030;1.822;2024-01-11T01:55:21;101968.00;;;19.52;33.75
62544;BME280;48597;49.030;1.822;2024-01-11T01:57:48;101973.72;;;19.52;33.64
62544;BME280;48597;49.030;1.822;2024-01-11T02:00:15;101968.81;;;19.52;33.72
62544;BME280;48597;49.030;1.822;2024-01-11T02:02:43;101974.53;;;19.52;33.66
62544;BME280;48597;49.030;1.822;2024-01-11T02:05:10;101973.72;;;19.52;33.63
62544;BME280;48597;49.030;1.822;2024-01-11T02:07:36;101967.19;;;19.51;33.60
62544;BME280;48597;49.030;1.822;2024-01-11T02:10:02;101976.59;;;19.52;33.62
62544;BME280;48597;49.030;1.822;2024-01-11T02:12:28;101980.69;;;19.51;33.60
62544;BME280;48597;49.030;1.822;2024-01-11T02:14:54;101975.34;;;19.53;33.65
62544;BME280;48597;49.030;1.822;2024-01-11T02:17:20;101976.59;;;19.52;33.67
62544;BME280;48597;49.030;1.822;2024-01-11T02:19:46;101982.31;;;19.52;33.64
62544;BME280;48597;49.030;1.822;2024-01-11T02:22:32;101990.06;;;19.51;33.74
62544;BME280;48597;49.030;1.822;2024-01-11T02:24:59;101992.13;;;19.51;33.60
62544;BME280;48597;49.030;1.822;2024-01-11T02:27:25;101995.78;;;19.51;33.55
62544;BME280;48597;49.030;1.822;2024-01-11T02:29:50;102000.69;;;19.51;33.75
62544;BME280;48597;49.030;1.822;2024-01-11T02:32:16;101999.88;;;19.50;33.61
62544;BME280;48597;49.030;1.822;2024-01-11T02:34:41;101997.84;;;19.51;33.57
62544;BME280;48597;49.030;1.822;2024-01-11T02:37:07;102006.41;;;19.51;33.55
62544;BME280;48597;49.030;1.822;2024-01-11T02:39:32;102006.41;;;19.51;33.58
62544;BME280;48597;49.030;1.822;2024-01-11T02:41:58;102007.25;;;19.51;33.58
62544;BME280;48597;49.030;1.822;2024-01-11T02:44:24;102007.25;;;19.51;33.60
62544;BME280;48597;49.030;1.822;2024-01-11T02:46:49;101998.66;;;19.51;33.58
62544;BME280;48597;49.030;1.822;2024-01-11T02:49:15;102004.38;;;19.51;33.66
62544;BME280;48597;49.030;1.822;2024-01-11T02:51:41;101999.88;;;19.50;33.58
62544;BME280;48597;49.030;1.822;2024-01-11T02:54:06;101997.03;;;19.50;33.55
62544;BME280;48597;49.030;1.822;2024-01-11T02:56:31;101998.66;;;19.51;33.48
62544;BME280;48597;49.030;1.822;2024-01-11T02:58:57;101992.13;;;19.51;33.61
62544;BME280;48597;49.030;1.822;2024-01-11T03:01:22;101997.03;;;19.50;33.65
62544;BME280;48597;49.030;1.822;2024-01-11T03:03:48;102003.56;;;19.51;33.57
62544;BME280;48597;49.030;1.822;2024-01-11T03:06:13;101999.88;;;19.50;33.60
62544;BME280;48597;49.030;1.822;2024-01-11T03:08:39;102002.75;;;19.50;33.65
62544;BME280;48597;49.030;1.822;2024-01-11T03:11:04;101997.03;;;19.50;33.59
62544;BME280;48597;49.030;1.822;2024-01-11T03:13:31;102000.69;;;19.51;33.52
62544;BME280;48597;49.030;1.822;2024-01-11T03:15:56;102001.13;;;19.49;33.43
62544;BME280;48597;49.030;1.822;2024-01-11T03:18:22;101999.88;;;19.50;33.67
62544;BME280;48597;49.030;1.822;2024-01-11T03:20:48;102006.41;;;19.51;33.68
62544;BME280;48597;49.030;1.822;2024-01-11T03:23:13;102005.59;;;19.50;33.58
62544;BME280;48597;49.030;1.822;2024-01-11T03:25:39;102017.84;;;19.51;33.47
62544;BME280;48597;49.030;1.822;2024-01-11T03:28:04;102009.28;;;19.51;33.48
62544;BME280;48597;49.030;1.822;2024-01-11T03:30:29;102017.03;;;19.50;33.58
62544;BME280;48597;49.030;1.822;2024-01-11T03:32:55;102021.53;;;19.51;33.52
62544;BME280;48597;49.030;1.822;2024-01-11T03:35:20;102013.78;;;19.52;33.50
62544;BME280;48597;49.030;1.822;2024-01-11T03:37:46;102010.91;;;19.52;33.60
62544;BME280;48597;49.030;1.822;2024-01-11T03:40:11;102010.91;;;19.52;33.57
62544;BME280;48597;49.030;1.822;2024-01-11T03:42:37;102015.41;;;19.53;33.63
62544;BME280;48597;49.030;1.822;2024-01-11T03:45:03;102014.16;;;19.54;33.61
62544;BME280;48597;49.030;1.822;2024-01-11T03:47:29;102021.13;;;19.53;33.50
62544;BME280;48597;49.030;1.822;2024-01-11T03:49:54;102016.22;;;19.53;33.51
62544;BME280;48597;49.030;1.822;2024-01-11T03:52:19;102023.16;;;19.52;33.52
62544;BME280;48597;49.030;1.822;2024-01-11T03:54:45;102021.13;;;19.53;33.64
62544;BME280;48597;49.030;1.822;2024-01-11T03:57:11;102017.03;;;19.54;33.49
62544;BME280;48597;49.030;1.822;2024-01-11T03:59:36;102023.97;;;19.53;33.67
62544;BME280;48597;49.030;1.822;2024-01-11T04:02:01;102028.88;;;19.52;33.52
62544;BME280;48597;49.030;1.822;2024-01-11T04:04:27;102020.72;;;19.51;33.47
62544;BME280;48597;49.030;1.822;2024-01-11T04:06:52;102018.69;;;19.51;33.56
62544;BME280;48597;49.030;1.822;2024-01-11T04:09:18;102018.69;;;19.51;33.69
62544;BME280;48597;49.030;1.822;2024-01-11T04:11:43;102019.50;;;19.52;33.58
62544;BME280;48597;49.030;1.822;2024-01-11T04:14:08;102027.25;;;19.51;33.61
62544;BME280;48597;49.030;1.822;2024-01-11T04:16:34;102029.31;;;19.51;33.56
62544;BME280;48597;49.030;1.822;2024-01-11T04:19:04;102035.84;;;19.51;33.54
62544;BME280;48597;49.030;1.822;2024-01-11T04:21:29;102038.69;;;19.51;33.58
62544;BME280;48597;49.030;1.822;2024-01-11T04:23:56;102035.03;;;19.51;33.55
62544;BME280;48597;49.030;1.822;2024-01-11T04:26:22;102048.50;;;19.50;33.28
62544;BME280;48597;49.030;1.822;2024-01-11T04:28:47;102048.50;;;19.50;33.48
62544;BME280;48597;49.030;1.822;2024-01-11T04:31:14;102041.56;;;19.51;33.39
62544;BME280;48597;49.030;1.822;2024-01-11T04:33:43;102048.91;;;19.52;33.56
62544;BME280;48597;49.030;1.822;2024-01-11T04:36:09;102055.84;;;19.51;33.57
62544;BME280;48597;49.030;1.822;2024-01-11T04:38:35;102056.66;;;19.52;33.60
62544;BME280;48597;49.030;1.822;2024-01-11T04:41:01;102057.09;;;19.50;33.55
62544;BME280;48597;49.030;1.822;2024-01-11T04:43:26;102057.09;;;19.50;33.59
62544;BME280;48597;49.030;1.822;2024-01-11T04:45:51;102065.25;;;19.52;33.71
62544;BME280;48597;49.030;1.822;2024-01-11T04:48:17;102056.66;;;19.52;33.57
62544;BME280;48597;49.030;1.822;2024-01-11T04:50:44;102053.00;;;19.51;33.54
62544;BME280;48597;49.030;1.822;2024-01-11T04:53:09;102058.72;;;19.51;33.56
62544;BME280;48597;49.030;1.822;2024-01-11T04:55:34;102064.44;;;19.51;33.58
62544;BME280;48597;49.030;1.822;2024-01-11T04:58:00;102064.44;;;19.51;33.52
62544;BME280;48597;49.030;1.822;2024-01-11T05:00:25;102067.28;;;19.51;33.63
62544;BME280;48597;49.030;1.822;2024-01-11T05:02:50;102068.53;;;19.50;33.31
62544;BME280;48597;49.030;1.822;2024-01-11T05:05:16;102072.19;;;19.51;33.57
62544;BME280;48597;49.030;1.822;2024-01-11T05:07:41;102074.25;;;19.50;33.46
62544;BME280;48597;49.030;1.822;2024-01-11T05:10:07;102075.06;;;19.51;33.42
62544;BME280;48597;49.030;1.822;2024-01-11T05:12:33;102069.34;;;19.51;33.42
62544;BME280;48597;49.030;1.822;2024-01-11T05:14:58;102077.50;;;19.52;33.46
62544;BME280;48597;49.030;1.822;2024-01-11T05:17:25;102075.06;;;19.51;33.49
62544;BME280;48597;49.030;1.822;2024-01-11T05:19:51;102075.06;;;19.51;33.50
62544;BME280;48597;49.030;1.822;2024-01-11T05:22:16;102076.69;;;19.52;33.51
62544;BME280;48597;49.030;1.822;2024-01-11T05:24:42;102081.97;;;19.57;33.33
62544;BME280;48597;49.030;1.822;2024-01-11T05:27:08;102078.28;;;19.56;33.27
62544;BME280;48597;49.030;1.822;2024-01-11T05:29:33;102081.56;;;19.58;33.10
62544;BME280;48597;49.030;1.822;2024-01-11T05:31:59;102081.91;;;19.60;33.04
62544;BME280;48597;49.030;1.822;2024-01-11T05:34:24;102082.38;;;19.59;33.04
62544;BME280;48597;49.030;1.822;2024-01-11T05:36:49;102080.69;;;19.61;33.05
62544;BME280;48597;49.030;1.822;2024-01-11T05:39:15;102078.22;;;19.63;32.92
62544;BME280;48597;49.030;1.822;2024-01-11T05:41:43;102073.31;;;19.64;32.77
62544;BME280;48597;49.030;1.822;2024-01-11T05:44:09;102086.41;;;19.65;32.75
62544;BME280;48597;49.030;1.822;2024-01-11T05:46:34;102070.88;;;19.62;32.91
62544;BME280;48597;49.030;1.822;2024-01-11T05:49:00;102076.59;;;19.62;32.74
62544;BME280;48597;49.030;1.822;2024-01-11T05:51:25;102081.50;;;19.62;32.66
62544;BME280;48597;49.030;1.822;2024-01-11T05:53:52;102078.22;;;19.63;32.40
62544;BME280;48597;49.030;1.822;2024-01-11T05:56:18;102075.78;;;19.62;32.69
62544;BME280;48597;49.030;1.822;2024-01-11T05:58:45;102077.84;;;19.61;32.60
62544;BME280;48597;49.030;1.822;2024-01-11T06:01:11;102078.22;;;19.63;32.50
62544;BME280;48597;49.030;1.822;2024-01-11T06:03:36;102078.22;;;19.63;32.60
62544;BME280;48597;49.030;1.822;2024-01-11T06:06:04;102087.63;;;19.64;32.65
62544;BME280;48597;49.030;1.822;2024-01-11T06:08:30;102096.22;;;19.64;32.59
62544;BME280;48597;49.030;1.822;2024-01-11T06:10:56;102103.97;;;19.63;32.64
62544;BME280;48597;49.030;1.822;2024-01-11T06:13:21;102109.28;;;19.61;32.54
62544;BME280;48597;49.030;1.822;2024-01-11T06:15:47;102115.81;;;19.66;32.58
62544;BME280;48597;49.030;1.822;2024-01-11T06:18:12;102122.38;;;19.62;32.59
62544;BME280;48597;49.030;1.822;2024-01-11T06:20:37;102137.06;;;19.65;32.68
62544;BME280;48597;49.030;1.822;2024-01-11T06:23:03;102132.56;;;19.63;32.57
62544;BME280;48597;49.030;1.822;2024-01-11T06:25:28;102131.75;;;19.63;32.57
62544;BME280;48597;49.030;1.822;2024-01-11T06:27:54;102127.66;;;19.64;32.42
62544;BME280;48597;49.030;1.822;2024-01-11T06:30:20;102130.13;;;19.66;32.24
62544;BME280;48597;49.030;1.822;2024-01-11T06:32:45;102139.50;;;19.66;32.43
62544;BME280;48597;49.030;1.822;2024-01-11T06:35:11;102142.78;;;19.68;32.33
62544;BME280;48597;49.030;1.822;2024-01-11T06:37:36;102149.72;;;19.67;32.40
62544;BME280;48597;49.030;1.822;2024-01-11T06:40:02;102150.13;;;19.69;32.41
62544;BME280;48597;49.030;1.822;2024-01-11T06:42:29;102139.50;;;19.70;32.29
62544;BME280;48597;49.030;1.822;2024-01-11T06:44:54;102141.53;;;19.69;32.49
62544;BME280;48597;49.030;1.822;2024-01-11T06:47:20;102146.84;;;19.71;32.36
62544;BME280;48597;49.030;1.822;2024-01-11T06:49:45;102154.19;;;19.72;32.29
62544;BME280;48597;49.030;1.822;2024-01-11T06:52:10;102156.66;;;19.73;32.29
62544;BME280;48597;49.030;1.822;2024-01-11T06:54:36;102168.88;;;19.74;32.25
62544;BME280;48597;49.030;1.822;2024-01-11T06:57:01;102170.13;;;19.73;32.28
62544;BME280;48597;49.030;1.822;2024-01-11T06:59:27;102172.53;;;19.74;32.20
62544;BME280;48597;49.030;1.822;2024-01-11T07:01:52;102170.53;;;19.71;32.22
62544;BME280;48597;49.030;1.822;2024-01-11T07:04:17;102181.56;;;19.73;32.08
62544;BME280;48597;49.030;1.822;2024-01-11T07:06:43;102184.84;;;19.71;32.05
62544;BME280;48597;49.030;1.822;2024-01-11T07:09:08;102186.91;;;19.71;32.15
62544;BME280;48597;49.030;1.822;2024-01-11T07:11:33;102183.63;;;19.69;32.16
62544;BME280;48597;49.030;1.822;2024-01-11T07:13:59;102191.81;;;19.67;32.24
62544;BME280;48597;49.030;1.822;2024-01-11T07:16:24;102195.50;;;19.63;32.11
62544;BME280;48597;49.030;1.822;2024-01-11T07:18:50;102192.25;;;19.61;32.25
62544;BME280;48597;49.030;1.822;2024-01-11T07:21:24;102205.34;;;19.59;32.20
62544;BME280;48597;49.030;1.822;2024-01-11T07:23:58;102206.19;;;19.56;32.21
62544;BME280;48597;49.030;1.822;2024-01-11T07:26:24;102204.16;;;19.53;32.26
62544;BME280;48597;49.030;1.822;2024-01-11T07:28:50;102201.69;;;19.51;32.19
62544;BME280;48597;49.030;1.822;2024-01-11T07:31:16;102204.97;;;19.50;32.22
62544;BME280;48597;49.030;1.822;2024-01-11T07:33:41;102217.63;;;19.49;32.20
62544;BME280;48597;49.030;1.822;2024-01-11T07:36:07;102225.00;;;19.46;32.22
62544;BME280;48597;49.030;1.822;2024-01-11T07:38:32;102237.66;;;19.45;32.26
62544;BME280;48597;49.030;1.822;2024-01-11T07:40:58;102228.28;;;19.45;32.16
62544;BME280;48597;49.030;1.822;2024-01-11T07:43:23;102226.22;;;19.42;32.14
62544;BME280;48597;49.030;1.822;2024-01-11T07:45:48;102231.13;;;19.41;32.18
62544;BME280;48597;49.030;1.822;2024-01-11T07:48:14;102228.69;;;19.40;32.25
62544;BME280;48597;49.030;1.822;2024-01-11T07:50:39;102230.72;;;19.39;32.30
62544;BME280;48597;49.030;1.822;2024-01-11T07:53:05;102231.94;;;19.42;32.24
62544;BME280;48597;49.030;1.822;2024-01-11T07:55:30;102234.41;;;19.43;32.18
62544;BME280;48597;49.030;1.822;2024-01-11T07:57:56;102239.28;;;19.46;32.07
62544;BME280;48597;49.030;1.822;2024-01-11T08:00:22;102243.78;;;19.47;31.96
62544;BME280;48597;49.030;1.822;2024-01-11T08:02:47;102249.50;;;19.47;32.01
62544;BME280;48597;49.030;1.822;2024-01-11T08:05:12;102254.81;;;19.49;32.11
62544;BME280;48597;49.030;1.822;2024-01-11T08:07:38;102252.38;;;19.51;32.10
62544;BME280;48597;49.030;1.822;2024-01-11T08:10:04;102245.81;;;19.50;32.08
62544;BME280;48597;49.030;1.822;2024-01-11T08:12:29;102254.41;;;19.47;32.42
62544;BME280;48597;49.030;1.822;2024-01-11T08:14:55;102257.69;;;19.45;32.72
62544;BME280;48597;49.030;1.822;2024-01-11T08:17:21;102258.91;;;19.44;32.64
62544;BME280;48597;49.030;1.822;2024-01-11T08:19:46;102265.84;;;19.43;32.80
62544;BME280;48597;49.030;1.822;2024-01-11T08:22:12;102265.84;;;19.43;33.14
62544;BME280;48597;49.030;1.822;2024-01-11T08:24:37;102263.00;;;19.43;33.23
62544;BME280;48597;49.030;1.822;2024-01-11T08:27:04;102256.47;;;19.43;32.94
62544;BME280;48597;49.030;1.822;2024-01-11T08:29:29;102248.69;;;19.43;33.22
62544;BME280;48597;49.030;1.822;2024-01-11T08:31:55;102249.50;;;19.44;33.28
62544;BME280;48597;49.030;1.822;2024-01-11T08:34:21;102256.47;;;19.43;33.31
62544;BME280;48597;49.030;1.822;2024-01-11T08:36:47;102263.00;;;19.43;33.30
62544;BME280;48597;49.030;1.822;2024-01-11T08:39:13;102261.78;;;19.44;33.36
62544;BME280;48597;49.030;1.822;2024-01-11T08:41:39;102270.34;;;19.44;33.37
62544;BME280;48597;49.030;1.822;2024-01-11T08:44:04;102275.25;;;19.44;33.70
62544;BME280;48597;49.030;1.822;2024-01-11T08:46:33;102280.56;;;19.45;33.42
62544;BME280;48597;49.030;1.822;2024-01-11T08:49:01;102277.69;;;19.45;33.52
62544;BME280;48597;49.030;1.822;2024-01-11T08:51:30;102290.38;;;19.41;33.44
62544;BME280;48597;49.030;1.822;2024-01-11T08:53:55;102283.81;;;19.44;33.52
62544;BME280;48597;49.030;1.822;2024-01-11T08:56:21;102281.78;;;19.44;33.54
62544;BME280;48597;49.030;1.822;2024-01-11T08:58:47;102289.94;;;19.46;33.49
62544;BME280;48597;49.030;1.822;2024-01-11T09:01:14;102286.28;;;19.45;33.45
62544;BME280;48597;49.030;1.822;2024-01-11T09:03:39;102282.19;;;19.46;33.42
62544;BME280;48597;49.030;1.822;2024-01-11T09:06:05;102280.16;;;19.47;33.46
62544;BME280;48597;49.030;1.822;2024-01-11T09:08:31;102287.91;;;19.46;33.50
62544;BME280;48597;49.030;1.822;2024-01-11T09:10:57;102289.53;;;19.47;33.50
62544;BME280;48597;49.030;1.822;2024-01-11T09:13:24;102285.06;;;19.46;33.33
62544;BME280;48597;49.030;1.822;2024-01-11T09:15:51;102283.81;;;19.47;33.52
62544;BME280;48597;49.030;1.822;2024-01-11T09:18:17;102298.91;;;19.48;33.49
62544;BME280;48597;49.030;1.822;2024-01-11T09:20:43;102291.16;;;19.48;33.40
62544;BME280;48597;49.030;1.822;2024-01-11T09:23:08;102298.13;;;19.47;33.48
62544;BME280;48597;49.030;1.822;2024-01-11T09:25:34;102309.56;;;19.47;33.38
62544;BME280;48597;49.030;1.822;2024-01-11T09:27:59;102299.34;;;19.46;33.26
62544;BME280;48597;49.030;1.822;2024-01-11T09:30:24;102286.69;;;19.47;33.30
62544;BME280;48597;49.030;1.822;2024-01-11T09:32:50;102280.97;;;19.47;33.37
62544;BME280;48597;49.030;1.822;2024-01-11T09:35:15;102293.19;;;19.48;33.31
62544;BME280;48597;49.030;1.822;2024-01-11T09:37:41;102289.53;;;19.47;33.53
62544;BME280;48597;49.030;1.822;2024-01-11T09:40:08;102284.59;;;19.48;33.46
62544;BME280;48597;49.030;1.822;2024-01-11T09:42:36;102289.53;;;19.47;33.48
62544;BME280;48597;49.030;1.822;2024-01-11T09:45:12;102287.47;;;19.48;33.54
62544;BME280;48597;49.030;1.822;2024-01-11T09:47:39;102278.88;;;19.48;33.68
62544;BME280;48597;49.030;1.822;2024-01-11T09:50:06;102288.28;;;19.48;33.56
62544;BME280;48597;49.030;1.822;2024-01-11T09:52:31;102296.50;;;19.50;33.50
62544;BME280;48597;49.030;1.822;2024-01-11T09:55:01;102289.94;;;19.49;33.51
62544;BME280;48597;49.030;1.822;2024-01-11T09:57:31;102299.34;;;19.50;33.55
62544;BME280;48597;49.030;1.822;2024-01-11T09:59:58;102300.56;;;19.49;33.81
62544;BME280;48597;49.030;1.822;2024-01-11T10:02:24;102289.94;;;19.49;33.61
62544;BME280;48597;49.030;1.822;2024-01-11T10:04:54;102292.41;;;19.51;33.67
62544;BME280;48597;49.030;1.822;2024-01-11T10:07:24;102285.88;;;19.50;33.66
62544;BME280;48597;49.030;1.822;2024-01-11T10:09:52;102292.41;;;19.51;33.67
62544;BME280;48597;49.030;1.822;2024-01-11T10:12:18;102292.41;;;19.51;33.66
62544;BME280;48597;49.030;1.822;2024-01-11T10:14:46;102294.03;;;19.52;33.62
62544;BME280;48597;49.030;1.822;2024-01-11T10:17:11;102297.72;;;19.52;33.73
62544;BME280;48597;49.030;1.822;2024-01-11T10:19:37;102285.88;;;19.50;33.43
62544;BME280;48597;49.030;1.822;2024-01-11T10:22:03;102279.72;;;19.52;33.83
62544;BME280;48597;49.030;1.822;2024-01-11T10:24:29;102279.72;;;19.52;33.63
62544;BME280;48597;49.030;1.822;2024-01-11T10:26:55;102267.88;;;19.53;33.67
62544;BME280;48597;49.030;1.822;2024-01-11T10:29:21;102277.28;;;19.54;33.67
62544;BME280;48597;49.030;1.822;2024-01-11T10:31:47;102269.50;;;19.54;33.67
62544;BME280;48597;49.030;1.822;2024-01-11T10:34:12;102268.69;;;19.54;33.62
62544;BME280;48597;49.030;1.822;2024-01-11T10:36:38;102262.56;;;19.55;33.73
62544;BME280;48597;49.030;1.822;2024-01-11T10:39:03;102252.34;;;19.54;33.62
62544;BME280;48597;49.030;1.822;2024-01-11T10:41:39;102263.38;;;19.56;33.58
62544;BME280;48597;49.030;1.822;2024-01-11T10:44:12;102249.91;;;19.56;33.72
62544;BME280;48597;49.030;1.822;2024-01-11T10:46:40;102244.59;;;19.55;33.64
62544;BME280;48597;49.030;1.822;2024-01-11T10:49:06;102247.03;;;19.56;33.64
62544;BME280;48597;49.030;1.822;2024-01-11T10:51:33;102249.47;;;19.58;33.68
62544;BME280;48597;49.030;1.822;2024-01-11T10:53:59;102262.97;;;19.57;33.70
62544;BME280;48597;49.030;1.822;2024-01-11T10:56:26;102265.84;;;19.57;33.48
62544;BME280;48597;49.030;1.822;2024-01-11T10:58:52;102267.47;;;19.58;33.57
62544;BME280;48597;49.030;1.822;2024-01-11T11:01:20;102259.69;;;19.59;33.55
62544;BME280;48597;49.030;1.822;2024-01-11T11:03:45;102271.97;;;19.59;33.54
62544;BME280;48597;49.030;1.822;2024-01-11T11:06:13;102271.97;;;19.59;33.73
62544;BME280;48597;49.030;1.822;2024-01-11T11:08:39;102267.06;;;19.60;33.61
62544;BME280;48597;49.030;1.822;2024-01-11T11:11:05;102261.34;;;19.60;33.63
62544;BME280;48597;49.030;1.822;2024-01-11T11:13:32;102260.06;;;19.61;33.63
62544;BME280;48597;49.030;1.822;2024-01-11T11:16:00;102272.34;;;19.61;33.63
62544;BME280;48597;49.030;1.822;2024-01-11T11:18:25;102265.78;;;19.61;33.62
62544;BME280;48597;49.030;1.822;2024-01-11T11:20:51;102263.75;;;19.61;33.60
62544;BME280;48597;49.030;1.822;2024-01-11T11:23:20;102265.38;;;19.62;33.77
62544;BME280;48597;49.030;1.822;2024-01-11T11:25:46;102262.53;;;19.62;33.60
62544;BME280;48597;49.030;1.822;2024-01-11T11:28:13;102253.94;;;19.62;33.57
62544;BME280;48597;49.030;1.822;2024-01-11T11:30:40;102259.25;;;19.64;33.68
62544;BME280;48597;49.030;1.822;2024-01-11T11:35:36;102273.56;;;19.64;33.74
62544;BME280;48597;49.030;1.822;2024-01-11T11:38:02;102274.38;;;19.65;33.70
62544;BME280;48597;49.030;1.822;2024-01-11T11:40:40;102276.00;;;19.66;33.67
62544;BME280;48597;49.030;1.822;2024-01-11T11:43:08;102271.50;;;19.65;33.68
62544;BME280;48597;49.030;1.822;2024-01-11T11:45:34;102273.97;;;19.66;33.73
62544;BME280;48597;49.030;1.822;2024-01-11T11:48:00;102285.41;;;19.66;33.79
62544;BME280;48597;49.030;1.822;2024-01-11T11:50:25;102286.22;;;19.67;33.80
62544;BME280;48597;49.030;1.822;2024-01-11T11:52:55;102288.66;;;19.68;33.76
62544;BME280;48597;49.030;1.822;2024-01-11T11:55:24;102279.25;;;19.68;33.68
62544;BME280;48597;49.030;1.822;2024-01-11T11:57:53;102280.09;;;19.68;33.73
62544;BME280;48597;49.030;1.822;2024-01-11T12:00:20;102276.41;;;19.68;33.70
62544;BME280;48597;49.030;1.822;2024-01-11T12:02:47;102280.91;;;19.69;33.74
62544;BME280;48597;49.030;1.822;2024-01-11T12:05:13;102285.00;;;19.68;33.72
62544;BME280;48597;49.030;1.822;2024-01-11T12:07:38;102269.44;;;19.69;33.73
62544;BME280;48597;49.030;1.822;2024-01-11T12:10:04;102260.88;;;19.69;33.70
62544;BME280;48597;49.030;1.822;2024-01-11T12:12:30;102269.03;;;19.70;33.71
62544;BME280;48597;49.030;1.822;2024-01-11T12:14:57;102266.19;;;19.70;33.74
62544;BME280;48597;49.030;1.822;2024-01-11T12:17:23;102269.03;;;19.70;33.77
62544;BME280;48597;49.030;1.822;2024-01-11T12:19:51;102257.59;;;19.70;33.70
62544;BME280;48597;49.030;1.822;2024-01-11T12:22:17;102255.56;;;19.71;33.82
62544;BME280;48597;49.030;1.822;2024-01-11T12:24:42;102267.81;;;19.71;33.74
62544;BME280;48597;49.030;1.822;2024-01-11T12:27:08;102280.06;;;19.72;33.62
62544;BME280;48597;49.030;1.822;2024-01-11T12:29:33;102273.13;;;19.73;33.72
62544;BME280;48597;49.030;1.822;2024-01-11T12:31:59;102262.91;;;19.72;33.79
62544;BME280;48597;49.030;1.822;2024-01-11T12:34:31;102267.41;;;19.73;33.65
62544;BME280;48597;49.030;1.822;2024-01-11T12:36:58;102275.97;;;19.73;33.64
62544;BME280;48597;49.030;1.822;2024-01-11T12:39:27;102268.22;;;19.73;33.53
62544;BME280;48597;49.030;1.822;2024-01-11T12:41:54;102260.41;;;19.74;33.64
62544;BME280;48597;49.030;1.822;2024-01-11T12:44:22;102264.09;;;19.74;33.79
62544;BME280;48597;49.030;1.822;2024-01-11T12:46:48;102256.31;;;19.75;33.76